sensor_id;sensor_type;location;lat;lon;timestamp;P1;durP1;ratioP1;P2;durP2;ratioP2
7767;SDS011;3928;42.626;23.382;2022-08-24T00:01:20;10.23;;;8.93;;
7767;SDS011;3928;42.626;23.382;2022-08-24T00:03:48;12.30;;;9.20;;
7767;SDS011;3928;42.626;23.382;2022-08-24T00:06:16;10.27;;;8.68;;
7767;SDS011;3928;42.626;23.382;2022-08-24T00:08:44;10.20;;;8.55;;
7767;SDS011;3928;42.626;23.382;2022-08-24T00:11:11;12.82;;;9.13;;
7767;SDS011;3928;42.626;23.382;2022-08-24T00:13:40;14.30;;;9.18;;
7767;SDS011;3928;42.626;23.382;2022-08-24T00:16:09;13.90;;;8.38;;
7767;SDS011;3928;42.626;23.382;2022-08-24T00:18:37;10.85;;;8.48;;
7767;SDS011;3928;42.626;23.382;2022-08-24T00:21:04;9.93;;;8.75;;
7767;SDS011;3928;42.626;23.382;2022-08-24T00:23:32;11.13;;;8.35;;
7767;SDS011;3928;42.626;23.382;2022-08-24T00:25:59;15.02;;;8.68;;
7767;SDS011;3928;42.626;23.382;2022-08-24T00:28:26;12.68;;;9.60;;
7767;SDS011;3928;42.626;23.382;2022-08-24T00:30:54;12.43;;;9.30;;
7767;SDS011;3928;42.626;23.382;2022-08-24T00:33:21;15.20;;;8.00;;
7767;SDS011;3928;42.626;23.382;2022-08-24T00:35:48;11.93;;;9.07;;
7767;SDS011;3928;42.626;23.382;2022-08-24T00:38:15;12.52;;;9.80;;
7767;SDS011;3928;42.626;23.382;2022-08-24T00:40:44;12.40;;;11.15;;
7767;SDS011;3928;42.626;23.382;2022-08-24T00:43:17;17.92;;;11.57;;
7767;SDS011;3928;42.626;23.382;2022-08-24T00:45:47;16.13;;;11.73;;
7767;SDS011;3928;42.626;23.382;2022-08-24T00:48:30;16.02;;;12.20;;
7767;SDS011;3928;42.626;23.382;2022-08-24T00:51:03;15.60;;;12.85;;
7767;SDS011;3928;42.626;23.382;2022-08-24T00:53:36;15.27;;;11.93;;
7767;SDS011;3928;42.626;23.382;2022-08-24T00:56:06;16.55;;;13.27;;
7767;SDS011;3928;42.626;23.382;2022-08-24T00:58:36;15.25;;;12.65;;
7767;SDS011;3928;42.626;23.382;2022-08-24T01:01:07;16.73;;;12.27;;
7767;SDS011;3928;42.626;23.382;2022-08-24T01:03:39;13.45;;;11.57;;
7767;SDS011;3928;42.626;23.382;2022-08-24T01:06:08;14.77;;;12.75;;
7767;SDS011;3928;42.626;23.382;2022-08-24T01:08:36;13.13;;;11.73;;
7767;SDS011;3928;42.626;23.382;2022-08-24T01:11:06;16.98;;;12.25;;
7767;SDS011;3928;42.626;23.382;2022-08-24T01:13:36;15.82;;;13.60;;
7767;SDS011;3928;42.626;23.382;2022-08-24T01:16:04;17.20;;;13.30;;
7767;SDS011;3928;42.626;23.382;2022-08-24T01:18:33;17.90;;;12.88;;
7767;SDS011;3928;42.626;23.382;2022-08-24T01:21:19;16.75;;;13.40;;
7767;SDS011;3928;42.626;23.382;2022-08-24T01:23:50;15.68;;;14.07;;
7767;SDS011;3928;42.626;23.382;2022-08-24T01:26:20;13.50;;;11.80;;
7767;SDS011;3928;42.626;23.382;2022-08-24T01:28:51;13.20;;;11.80;;
7767;SDS011;3928;42.626;23.382;2022-08-24T01:31:23;16.42;;;14.07;;
7767;SDS011;3928;42.626;23.382;2022-08-24T01:33:51;21.27;;;16.42;;
7767;SDS011;3928;42.626;23.382;2022-08-24T01:36:21;23.67;;;19.08;;
7767;SDS011;3928;42.626;23.382;2022-08-24T01:38:54;24.15;;;17.95;;
7767;SDS011;3928;42.626;23.382;2022-08-24T01:41:23;30.35;;;22.90;;
7767;SDS011;3928;42.626;23.382;2022-08-24T01:43:51;28.00;;;22.30;;
7767;SDS011;3928;42.626;23.382;2022-08-24T01:46:18;25.92;;;19.58;;
7767;SDS011;3928;42.626;23.382;2022-08-24T01:48:45;26.13;;;21.65;;
7767;SDS011;3928;42.626;23.382;2022-08-24T01:51:11;29.27;;;22.33;;
7767;SDS011;3928;42.626;23.382;2022-08-24T01:53:38;27.13;;;21.38;;
7767;SDS011;3928;42.626;23.382;2022-08-24T01:56:07;25.67;;;21.35;;
7767;SDS011;3928;42.626;23.382;2022-08-24T01:58:33;33.72;;;25.45;;
7767;SDS011;3928;42.626;23.382;2022-08-24T02:01:00;30.80;;;24.90;;
7767;SDS011;3928;42.626;23.382;2022-08-24T02:03:27;30.25;;;23.13;;
7767;SDS011;3928;42.626;23.382;2022-08-24T02:05:55;34.05;;;27.48;;
7767;SDS011;3928;42.626;23.382;2022-08-24T02:08:23;34.75;;;26.13;;
7767;SDS011;3928;42.626;23.382;2022-08-24T02:10:49;34.08;;;27.08;;
7767;SDS011;3928;42.626;23.382;2022-08-24T02:13:18;32.92;;;25.75;;
7767;SDS011;3928;42.626;23.382;2022-08-24T02:15:44;36.22;;;26.83;;
7767;SDS011;3928;42.626;23.382;2022-08-24T02:18:11;32.47;;;26.35;;
7767;SDS011;3928;42.626;23.382;2022-08-24T02:20:38;33.05;;;24.80;;
7767;SDS011;3928;42.626;23.382;2022-08-24T02:23:05;30.67;;;22.92;;
7767;SDS011;3928;42.626;23.382;2022-08-24T02:25:33;29.13;;;23.30;;
7767;SDS011;3928;42.626;23.382;2022-08-24T02:28:00;33.28;;;24.70;;
7767;SDS011;3928;42.626;23.382;2022-08-24T02:30:28;35.92;;;25.63;;
7767;SDS011;3928;42.626;23.382;2022-08-24T02:32:56;34.67;;;25.80;;
7767;SDS011;3928;42.626;23.382;2022-08-24T02:35:24;38.72;;;27.42;;
7767;SDS011;3928;42.626;23.382;2022-08-24T02:37:52;38.58;;;27.98;;
7767;SDS011;3928;42.626;23.382;2022-08-24T02:40:19;39.80;;;26.65;;
7767;SDS011;3928;42.626;23.382;2022-08-24T02:42:46;37.05;;;24.55;;
7767;SDS011;3928;42.626;23.382;2022-08-24T02:45:13;31.40;;;23.50;;
7767;SDS011;3928;42.626;23.382;2022-08-24T02:47:42;36.38;;;22.15;;
7767;SDS011;3928;42.626;23.382;2022-08-24T02:50:10;25.17;;;19.70;;
7767;SDS011;3928;42.626;23.382;2022-08-24T02:52:39;23.23;;;19.58;;
7767;SDS011;3928;42.626;23.382;2022-08-24T02:55:07;29.02;;;20.95;;
7767;SDS011;3928;42.626;23.382;2022-08-24T02:57:36;23.40;;;17.88;;
7767;SDS011;3928;42.626;23.382;2022-08-24T03:00:04;21.65;;;17.33;;
7767;SDS011;3928;42.626;23.382;2022-08-24T03:02:32;22.60;;;19.25;;
7767;SDS011;3928;42.626;23.382;2022-08-24T03:05:01;18.95;;;16.35;;
7767;SDS011;3928;42.626;23.382;2022-08-24T03:07:28;26.80;;;20.42;;
7767;SDS011;3928;42.626;23.382;2022-08-24T03:09:55;21.83;;;18.98;;
7767;SDS011;3928;42.626;23.382;2022-08-24T03:12:22;23.05;;;19.23;;
7767;SDS011;3928;42.626;23.382;2022-08-24T03:14:49;21.77;;;17.75;;
7767;SDS011;3928;42.626;23.382;2022-08-24T03:17:15;24.52;;;17.30;;
7767;SDS011;3928;42.626;23.382;2022-08-24T03:19:43;20.02;;;16.13;;
7767;SDS011;3928;42.626;23.382;2022-08-24T03:22:12;19.48;;;16.00;;
7767;SDS011;3928;42.626;23.382;2022-08-24T03:24:38;23.38;;;17.67;;
7767;SDS011;3928;42.626;23.382;2022-08-24T03:27:05;24.42;;;17.17;;
7767;SDS011;3928;42.626;23.382;2022-08-24T03:29:32;27.88;;;19.00;;
7767;SDS011;3928;42.626;23.382;2022-08-24T03:32:00;17.23;;;13.63;;
7767;SDS011;3928;42.626;23.382;2022-08-24T03:34:28;17.85;;;15.95;;
7767;SDS011;3928;42.626;23.382;2022-08-24T03:36:55;16.52;;;14.25;;
7767;SDS011;3928;42.626;23.382;2022-08-24T03:39:23;19.40;;;14.20;;
7767;SDS011;3928;42.626;23.382;2022-08-24T03:41:50;18.83;;;14.00;;
7767;SDS011;3928;42.626;23.382;2022-08-24T03:44:17;20.70;;;16.42;;
7767;SDS011;3928;42.626;23.382;2022-08-24T03:46:44;22.05;;;15.82;;
7767;SDS011;3928;42.626;23.382;2022-08-24T03:49:12;19.23;;;15.73;;
7767;SDS011;3928;42.626;23.382;2022-08-24T03:51:39;22.33;;;16.27;;
7767;SDS011;3928;42.626;23.382;2022-08-24T03:54:07;20.85;;;16.02;;
7767;SDS011;3928;42.626;23.382;2022-08-24T03:56:36;18.70;;;15.35;;
7767;SDS011;3928;42.626;23.382;2022-08-24T03:59:03;17.30;;;14.98;;
7767;SDS011;3928;42.626;23.382;2022-08-24T04:01:31;14.90;;;12.98;;
7767;SDS011;3928;42.626;23.382;2022-08-24T04:03:58;18.38;;;14.20;;
7767;SDS011;3928;42.626;23.382;2022-08-24T04:06:25;17.58;;;14.82;;
7767;SDS011;3928;42.626;23.382;2022-08-24T04:08:52;17.55;;;14.73;;
7767;SDS011;3928;42.626;23.382;2022-08-24T04:11:21;16.33;;;14.63;;
7767;SDS011;3928;42.626;23.382;2022-08-24T04:13:51;16.65;;;14.75;;
7767;SDS011;3928;42.626;23.382;2022-08-24T04:16:20;16.33;;;14.23;;
7767;SDS011;3928;42.626;23.382;2022-08-24T04:18:49;15.13;;;13.52;;
7767;SDS011;3928;42.626;23.382;2022-08-24T04:21:16;13.88;;;12.43;;
7767;SDS011;3928;42.626;23.382;2022-08-24T04:23:44;13.40;;;11.65;;
7767;SDS011;3928;42.626;23.382;2022-08-24T04:26:11;15.65;;;11.50;;
7767;SDS011;3928;42.626;23.382;2022-08-24T04:28:38;14.27;;;12.32;;
7767;SDS011;3928;42.626;23.382;2022-08-24T04:31:07;13.45;;;11.60;;
7767;SDS011;3928;42.626;23.382;2022-08-24T04:33:34;14.30;;;11.35;;
7767;SDS011;3928;42.626;23.382;2022-08-24T04:36:04;13.80;;;11.15;;
7767;SDS011;3928;42.626;23.382;2022-08-24T04:38:33;11.40;;;10.30;;
7767;SDS011;3928;42.626;23.382;2022-08-24T04:41:02;12.13;;;10.77;;
7767;SDS011;3928;42.626;23.382;2022-08-24T04:43:29;12.38;;;9.80;;
7767;SDS011;3928;42.626;23.382;2022-08-24T04:45:56;15.32;;;10.45;;
7767;SDS011;3928;42.626;23.382;2022-08-24T04:48:24;11.50;;;10.38;;
7767;SDS011;3928;42.626;23.382;2022-08-24T04:50:51;15.40;;;9.20;;
7767;SDS011;3928;42.626;23.382;2022-08-24T04:53:18;10.50;;;9.13;;
7767;SDS011;3928;42.626;23.382;2022-08-24T04:55:46;10.48;;;9.38;;
7767;SDS011;3928;42.626;23.382;2022-08-24T04:58:14;10.13;;;8.48;;
7767;SDS011;3928;42.626;23.382;2022-08-24T05:00:43;12.45;;;9.50;;
7767;SDS011;3928;42.626;23.382;2022-08-24T05:03:11;10.25;;;9.23;;
7767;SDS011;3928;42.626;23.382;2022-08-24T05:05:40;10.25;;;9.25;;
7767;SDS011;3928;42.626;23.382;2022-08-24T05:08:09;13.10;;;9.98;;
7767;SDS011;3928;42.626;23.382;2022-08-24T05:10:37;9.90;;;7.95;;
7767;SDS011;3928;42.626;23.382;2022-08-24T05:13:05;9.20;;;8.20;;
7767;SDS011;3928;42.626;23.382;2022-08-24T05:15:33;10.85;;;7.68;;
7767;SDS011;3928;42.626;23.382;2022-08-24T05:18:02;10.52;;;7.85;;
7767;SDS011;3928;42.626;23.382;2022-08-24T05:20:29;10.07;;;7.95;;
7767;SDS011;3928;42.626;23.382;2022-08-24T05:22:57;9.60;;;7.82;;
7767;SDS011;3928;42.626;23.382;2022-08-24T05:25:24;11.27;;;7.35;;
7767;SDS011;3928;42.626;23.382;2022-08-24T05:27:51;8.35;;;7.00;;
7767;SDS011;3928;42.626;23.382;2022-08-24T05:30:18;8.60;;;7.47;;
7767;SDS011;3928;42.626;23.382;2022-08-24T05:32:45;7.32;;;6.57;;
7767;SDS011;3928;42.626;23.382;2022-08-24T05:35:13;10.77;;;7.55;;
7767;SDS011;3928;42.626;23.382;2022-08-24T05:37:40;8.48;;;6.82;;
7767;SDS011;3928;42.626;23.382;2022-08-24T05:40:10;7.38;;;6.30;;
7767;SDS011;3928;42.626;23.382;2022-08-24T05:42:39;47.88;;;41.63;;
7767;SDS011;3928;42.626;23.382;2022-08-24T05:45:06;8.80;;;7.82;;
7767;SDS011;3928;42.626;23.382;2022-08-24T05:47:34;37.47;;;32.35;;
7767;SDS011;3928;42.626;23.382;2022-08-24T05:50:01;15.10;;;12.07;;
7767;SDS011;3928;42.626;23.382;2022-08-24T05:52:29;45.63;;;40.63;;
7767;SDS011;3928;42.626;23.382;2022-08-24T05:54:58;14.18;;;12.15;;
7767;SDS011;3928;42.626;23.382;2022-08-24T05:57:30;8.07;;;6.78;;
7767;SDS011;3928;42.626;23.382;2022-08-24T05:59:58;8.18;;;6.70;;
7767;SDS011;3928;42.626;23.382;2022-08-24T06:02:26;7.63;;;6.65;;
7767;SDS011;3928;42.626;23.382;2022-08-24T06:04:53;8.52;;;6.53;;
7767;SDS011;3928;42.626;23.382;2022-08-24T06:07:20;13.63;;;7.05;;
7767;SDS011;3928;42.626;23.382;2022-08-24T06:09:46;8.20;;;7.03;;
7767;SDS011;3928;42.626;23.382;2022-08-24T06:12:13;9.02;;;7.20;;
7767;SDS011;3928;42.626;23.382;2022-08-24T06:14:45;9.35;;;6.50;;
7767;SDS011;3928;42.626;23.382;2022-08-24T06:17:12;8.27;;;6.22;;
7767;SDS011;3928;42.626;23.382;2022-08-24T06:19:39;8.68;;;6.55;;
7767;SDS011;3928;42.626;23.382;2022-08-24T06:22:07;8.55;;;6.43;;
7767;SDS011;3928;42.626;23.382;2022-08-24T06:24:35;8.13;;;6.63;;
7767;SDS011;3928;42.626;23.382;2022-08-24T06:27:20;10.25;;;7.13;;
7767;SDS011;3928;42.626;23.382;2022-08-24T06:29:49;8.98;;;8.10;;
7767;SDS011;3928;42.626;23.382;2022-08-24T06:32:17;10.20;;;7.15;;
7767;SDS011;3928;42.626;23.382;2022-08-24T06:34:44;8.80;;;6.18;;
7767;SDS011;3928;42.626;23.382;2022-08-24T06:37:11;7.82;;;7.03;;
7767;SDS011;3928;42.626;23.382;2022-08-24T06:39:38;9.60;;;7.85;;
7767;SDS011;3928;42.626;23.382;2022-08-24T06:42:05;35.17;;;31.42;;
7767;SDS011;3928;42.626;23.382;2022-08-24T06:44:32;12.93;;;11.57;;
7767;SDS011;3928;42.626;23.382;2022-08-24T06:47:00;12.52;;;10.73;;
7767;SDS011;3928;42.626;23.382;2022-08-24T06:49:27;15.00;;;12.10;;
7767;SDS011;3928;42.626;23.382;2022-08-24T06:51:54;11.73;;;9.15;;
7767;SDS011;3928;42.626;23.382;2022-08-24T06:54:21;12.27;;;8.48;;
7767;SDS011;3928;42.626;23.382;2022-08-24T06:56:48;10.50;;;8.25;;
7767;SDS011;3928;42.626;23.382;2022-08-24T06:59:15;13.05;;;8.75;;
7767;SDS011;3928;42.626;23.382;2022-08-24T07:01:43;10.93;;;9.05;;
7767;SDS011;3928;42.626;23.382;2022-08-24T07:04:11;11.32;;;7.40;;
7767;SDS011;3928;42.626;23.382;2022-08-24T07:06:38;11.95;;;7.68;;
7767;SDS011;3928;42.626;23.382;2022-08-24T07:09:05;11.38;;;7.47;;
7767;SDS011;3928;42.626;23.382;2022-08-24T07:11:32;11.00;;;7.30;;
7767;SDS011;3928;42.626;23.382;2022-08-24T07:13:59;9.50;;;7.40;;
7767;SDS011;3928;42.626;23.382;2022-08-24T07:16:26;8.05;;;7.30;;
7767;SDS011;3928;42.626;23.382;2022-08-24T07:18:53;7.32;;;6.55;;
7767;SDS011;3928;42.626;23.382;2022-08-24T07:21:22;7.80;;;6.72;;
7767;SDS011;3928;42.626;23.382;2022-08-24T07:23:49;8.95;;;7.18;;
7767;SDS011;3928;42.626;23.382;2022-08-24T07:26:20;10.25;;;6.82;;
7767;SDS011;3928;42.626;23.382;2022-08-24T07:28:48;9.45;;;7.22;;
7767;SDS011;3928;42.626;23.382;2022-08-24T07:31:15;8.77;;;7.50;;
7767;SDS011;3928;42.626;23.382;2022-08-24T07:33:42;8.57;;;7.25;;
7767;SDS011;3928;42.626;23.382;2022-08-24T07:36:09;9.68;;;7.18;;
7767;SDS011;3928;42.626;23.382;2022-08-24T07:38:38;10.77;;;8.10;;
7767;SDS011;3928;42.626;23.382;2022-08-24T07:41:05;8.43;;;7.63;;
7767;SDS011;3928;42.626;23.382;2022-08-24T07:43:31;8.23;;;6.80;;
7767;SDS011;3928;42.626;23.382;2022-08-24T07:45:58;7.60;;;6.70;;
7767;SDS011;3928;42.626;23.382;2022-08-24T07:48:25;7.72;;;6.93;;
7767;SDS011;3928;42.626;23.382;2022-08-24T07:50:52;8.63;;;6.60;;
7767;SDS011;3928;42.626;23.382;2022-08-24T07:53:19;16.83;;;15.23;;
7767;SDS011;3928;42.626;23.382;2022-08-24T07:55:52;20.23;;;12.95;;
7767;SDS011;3928;42.626;23.382;2022-08-24T07:58:20;35.15;;;31.23;;
7767;SDS011;3928;42.626;23.382;2022-08-24T08:00:47;9.02;;;7.57;;
7767;SDS011;3928;42.626;23.382;2022-08-24T08:03:14;8.40;;;7.60;;
7767;SDS011;3928;42.626;23.382;2022-08-24T08:05:42;7.68;;;6.85;;
7767;SDS011;3928;42.626;23.382;2022-08-24T08:08:08;7.50;;;6.65;;
7767;SDS011;3928;42.626;23.382;2022-08-24T08:10:36;9.07;;;6.30;;
7767;SDS011;3928;42.626;23.382;2022-08-24T08:13:05;8.38;;;7.07;;
7767;SDS011;3928;42.626;23.382;2022-08-24T08:15:32;6.10;;;5.50;;
7767;SDS011;3928;42.626;23.382;2022-08-24T08:17:59;8.80;;;6.15;;
7767;SDS011;3928;42.626;23.382;2022-08-24T08:20:26;7.93;;;6.40;;
7767;SDS011;3928;42.626;23.382;2022-08-24T08:22:53;8.00;;;6.05;;
7767;SDS011;3928;42.626;23.382;2022-08-24T08:25:37;9.55;;;6.25;;
7767;SDS011;3928;42.626;23.382;2022-08-24T08:28:06;9.77;;;6.18;;
7767;SDS011;3928;42.626;23.382;2022-08-24T08:30:33;8.88;;;5.50;;
7767;SDS011;3928;42.626;23.382;2022-08-24T08:33:00;7.28;;;5.88;;
7767;SDS011;3928;42.626;23.382;2022-08-24T08:35:27;9.27;;;5.80;;
7767;SDS011;3928;42.626;23.382;2022-08-24T08:37:54;8.65;;;5.70;;
7767;SDS011;3928;42.626;23.382;2022-08-24T08:40:23;6.25;;;5.68;;
7767;SDS011;3928;42.626;23.382;2022-08-24T08:43:08;8.20;;;5.90;;
7767;SDS011;3928;42.626;23.382;2022-08-24T08:45:46;7.50;;;5.60;;
7767;SDS011;3928;42.626;23.382;2022-08-24T08:48:48;10.88;;;5.75;;
7767;SDS011;3928;42.626;23.382;2022-08-24T08:51:48;9.82;;;6.00;;
7767;SDS011;3928;42.626;23.382;2022-08-24T08:57:23;9.38;;;5.68;;
7767;SDS011;3928;42.626;23.382;2022-08-24T09:00:10;13.38;;;11.15;;
7767;SDS011;3928;42.626;23.382;2022-08-24T09:02:54;20.92;;;17.95;;
7767;SDS011;3928;42.626;23.382;2022-08-24T09:08:37;9.55;;;5.20;;
7767;SDS011;3928;42.626;23.382;2022-08-24T09:11:19;5.85;;;5.25;;
7767;SDS011;3928;42.626;23.382;2022-08-24T09:13:57;10.57;;;5.43;;
7767;SDS011;3928;42.626;23.382;2022-08-24T09:16:45;10.68;;;5.35;;
7767;SDS011;3928;42.626;23.382;2022-08-24T09:19:31;5.65;;;5.03;;
7767;SDS011;3928;42.626;23.382;2022-08-24T09:22:24;8.15;;;5.85;;
7767;SDS011;3928;42.626;23.382;2022-08-24T09:25:09;8.75;;;5.20;;
7767;SDS011;3928;42.626;23.382;2022-08-24T09:27:49;5.45;;;4.93;;
7767;SDS011;3928;42.626;23.382;2022-08-24T09:30:34;5.82;;;5.32;;
7767;SDS011;3928;42.626;23.382;2022-08-24T09:33:24;6.97;;;5.65;;
7767;SDS011;3928;42.626;23.382;2022-08-24T09:36:02;6.15;;;5.13;;
7767;SDS011;3928;42.626;23.382;2022-08-24T09:44:43;5.90;;;5.22;;
7767;SDS011;3928;42.626;23.382;2022-08-24T09:50:41;10.57;;;6.75;;
7767;SDS011;3928;42.626;23.382;2022-08-24T09:53:36;6.25;;;5.47;;
7767;SDS011;3928;42.626;23.382;2022-08-24T09:56:27;6.38;;;4.90;;
7767;SDS011;3928;42.626;23.382;2022-08-24T09:59:09;7.65;;;4.55;;
7767;SDS011;3928;42.626;23.382;2022-08-24T10:01:51;11.45;;;5.88;;
7767;SDS011;3928;42.626;23.382;2022-08-24T10:04:35;6.00;;;4.40;;
7767;SDS011;3928;42.626;23.382;2022-08-24T10:07:12;8.30;;;5.30;;
7767;SDS011;3928;42.626;23.382;2022-08-24T10:12:50;5.90;;;5.30;;
7767;SDS011;3928;42.626;23.382;2022-08-24T10:15:28;5.70;;;5.20;;
7767;SDS011;3928;42.626;23.382;2022-08-24T10:18:17;6.70;;;4.90;;
7767;SDS011;3928;42.626;23.382;2022-08-24T10:21:04;6.97;;;5.05;;
7767;SDS011;3928;42.626;23.382;2022-08-24T10:24:03;6.00;;;4.22;;
7767;SDS011;3928;42.626;23.382;2022-08-24T10:26:43;7.93;;;4.82;;
7767;SDS011;3928;42.626;23.382;2022-08-24T10:29:31;17.90;;;16.23;;
7767;SDS011;3928;42.626;23.382;2022-08-24T10:32:17;9.13;;;5.82;;
7767;SDS011;3928;42.626;23.382;2022-08-24T10:34:57;8.45;;;4.90;;
7767;SDS011;3928;42.626;23.382;2022-08-24T10:37:37;6.88;;;4.65;;
7767;SDS011;3928;42.626;23.382;2022-08-24T10:40:32;5.72;;;4.88;;
7767;SDS011;3928;42.626;23.382;2022-08-24T10:43:09;8.88;;;5.60;;
7767;SDS011;3928;42.626;23.382;2022-08-24T10:55:15;5.05;;;4.53;;
7767;SDS011;3928;42.626;23.382;2022-08-24T10:57:50;5.93;;;4.95;;
7767;SDS011;3928;42.626;23.382;2022-08-24T11:00:32;5.03;;;4.43;;
7767;SDS011;3928;42.626;23.382;2022-08-24T11:03:04;5.18;;;4.68;;
7767;SDS011;3928;42.626;23.382;2022-08-24T11:05:35;6.10;;;5.05;;
7767;SDS011;3928;42.626;23.382;2022-08-24T11:08:06;7.22;;;5.25;;
7767;SDS011;3928;42.626;23.382;2022-08-24T11:10:34;6.25;;;4.80;;
7767;SDS011;3928;42.626;23.382;2022-08-24T11:13:17;9.57;;;5.95;;
7767;SDS011;3928;42.626;23.382;2022-08-24T11:15:48;7.15;;;5.15;;
7767;SDS011;3928;42.626;23.382;2022-08-24T11:18:17;6.20;;;5.03;;
7767;SDS011;3928;42.626;23.382;2022-08-24T11:20:46;11.63;;;5.47;;
7767;SDS011;3928;42.626;23.382;2022-08-24T11:23:14;6.18;;;5.28;;
7767;SDS011;3928;42.626;23.382;2022-08-24T11:25:51;10.60;;;5.35;;
7767;SDS011;3928;42.626;23.382;2022-08-24T11:28:24;5.55;;;4.60;;
7767;SDS011;3928;42.626;23.382;2022-08-24T11:30:55;8.98;;;4.63;;
7767;SDS011;3928;42.626;23.382;2022-08-24T11:33:24;9.15;;;5.40;;
7767;SDS011;3928;42.626;23.382;2022-08-24T11:35:54;8.75;;;5.63;;
7767;SDS011;3928;42.626;23.382;2022-08-24T11:38:21;5.70;;;4.90;;
7767;SDS011;3928;42.626;23.382;2022-08-24T11:40:50;7.95;;;5.82;;
7767;SDS011;3928;42.626;23.382;2022-08-24T11:43:43;10.50;;;6.60;;
7767;SDS011;3928;42.626;23.382;2022-08-24T11:46:25;19.02;;;16.58;;
7767;SDS011;3928;42.626;23.382;2022-08-24T11:49:01;7.85;;;5.03;;
7767;SDS011;3928;42.626;23.382;2022-08-24T11:51:37;7.15;;;4.75;;
7767;SDS011;3928;42.626;23.382;2022-08-24T11:54:13;6.93;;;4.82;;
7767;SDS011;3928;42.626;23.382;2022-08-24T11:56:51;8.50;;;5.38;;
7767;SDS011;3928;42.626;23.382;2022-08-24T11:59:32;8.88;;;5.07;;
7767;SDS011;3928;42.626;23.382;2022-08-24T12:02:10;10.60;;;7.55;;
7767;SDS011;3928;42.626;23.382;2022-08-24T12:04:45;17.55;;;14.45;;
7767;SDS011;3928;42.626;23.382;2022-08-24T12:07:19;13.82;;;12.35;;
7767;SDS011;3928;42.626;23.382;2022-08-24T12:10:00;6.43;;;5.70;;
7767;SDS011;3928;42.626;23.382;2022-08-24T12:12:45;5.60;;;4.85;;
7767;SDS011;3928;42.626;23.382;2022-08-24T12:15:19;7.10;;;5.25;;
7767;SDS011;3928;42.626;23.382;2022-08-24T12:17:59;10.65;;;5.15;;
7767;SDS011;3928;42.626;23.382;2022-08-24T12:20:30;6.57;;;5.35;;
7767;SDS011;3928;42.626;23.382;2022-08-24T12:23:02;9.13;;;5.63;;
7767;SDS011;3928;42.626;23.382;2022-08-24T12:25:32;10.80;;;5.20;;
7767;SDS011;3928;42.626;23.382;2022-08-24T12:28:19;8.68;;;5.97;;
7767;SDS011;3928;42.626;23.382;2022-08-24T12:30:51;5.85;;;5.30;;
7767;SDS011;3928;42.626;23.382;2022-08-24T12:33:29;10.35;;;6.20;;
7767;SDS011;3928;42.626;23.382;2022-08-24T12:36:00;6.40;;;5.78;;
7767;SDS011;3928;42.626;23.382;2022-08-24T12:38:32;7.85;;;5.40;;
7767;SDS011;3928;42.626;23.382;2022-08-24T12:41:04;10.95;;;5.47;;
7767;SDS011;3928;42.626;23.382;2022-08-24T12:43:41;14.43;;;9.43;;
7767;SDS011;3928;42.626;23.382;2022-08-24T12:46:14;12.13;;;7.78;;
7767;SDS011;3928;42.626;23.382;2022-08-24T12:48:46;8.05;;;5.70;;
7767;SDS011;3928;42.626;23.382;2022-08-24T12:51:20;11.80;;;6.50;;
7767;SDS011;3928;42.626;23.382;2022-08-24T12:56:58;15.35;;;6.65;;
7767;SDS011;3928;42.626;23.382;2022-08-24T12:59:38;10.70;;;6.15;;
7767;SDS011;3928;42.626;23.382;2022-08-24T13:02:26;12.75;;;6.07;;
7767;SDS011;3928;42.626;23.382;2022-08-24T13:04:58;9.35;;;6.45;;
7767;SDS011;3928;42.626;23.382;2022-08-24T13:07:31;16.90;;;6.63;;
7767;SDS011;3928;42.626;23.382;2022-08-24T13:10:07;11.43;;;5.82;;
7767;SDS011;3928;42.626;23.382;2022-08-24T13:15:54;12.63;;;6.10;;
7767;SDS011;3928;42.626;23.382;2022-08-24T13:21:41;11.55;;;8.85;;
7767;SDS011;3928;42.626;23.382;2022-08-24T13:33:31;10.52;;;6.35;;
7767;SDS011;3928;42.626;23.382;2022-08-24T13:36:03;18.45;;;7.47;;
7767;SDS011;3928;42.626;23.382;2022-08-24T13:41:47;8.43;;;7.22;;
7767;SDS011;3928;42.626;23.382;2022-08-24T13:44:32;13.35;;;7.13;;
7767;SDS011;3928;42.626;23.382;2022-08-24T13:47:17;14.63;;;7.47;;
7767;SDS011;3928;42.626;23.382;2022-08-24T13:49:53;39.85;;;34.20;;
7767;SDS011;3928;42.626;23.382;2022-08-24T13:52:35;14.45;;;12.90;;
7767;SDS011;3928;42.626;23.382;2022-08-24T13:55:13;18.35;;;15.25;;
7767;SDS011;3928;42.626;23.382;2022-08-24T13:58:06;13.65;;;10.10;;
7767;SDS011;3928;42.626;23.382;2022-08-24T14:00:42;10.55;;;8.00;;
7767;SDS011;3928;42.626;23.382;2022-08-24T14:06:18;12.65;;;7.68;;
7767;SDS011;3928;42.626;23.382;2022-08-24T14:08:54;15.35;;;7.32;;
7767;SDS011;3928;42.626;23.382;2022-08-24T14:11:36;11.63;;;7.60;;
7767;SDS011;3928;42.626;23.382;2022-08-24T14:14:20;12.05;;;6.95;;
7767;SDS011;3928;42.626;23.382;2022-08-24T14:17:06;12.40;;;7.13;;
7767;SDS011;3928;42.626;23.382;2022-08-24T14:19:59;11.55;;;6.82;;
7767;SDS011;3928;42.626;23.382;2022-08-24T14:22:33;10.23;;;7.13;;
7767;SDS011;3928;42.626;23.382;2022-08-24T14:25:16;12.82;;;7.05;;
7767;SDS011;3928;42.626;23.382;2022-08-24T14:27:46;13.38;;;6.63;;
7767;SDS011;3928;42.626;23.382;2022-08-24T14:33:08;11.55;;;6.70;;
7767;SDS011;3928;42.626;23.382;2022-08-24T14:35:43;18.05;;;7.88;;
7767;SDS011;3928;42.626;23.382;2022-08-24T14:38:27;13.13;;;7.47;;
7767;SDS011;3928;42.626;23.382;2022-08-24T14:41:15;10.18;;;6.88;;
7767;SDS011;3928;42.626;23.382;2022-08-24T14:43:55;15.70;;;7.25;;
7767;SDS011;3928;42.626;23.382;2022-08-24T14:46:42;13.95;;;7.53;;
7767;SDS011;3928;42.626;23.382;2022-08-24T14:49:17;11.85;;;6.15;;
7767;SDS011;3928;42.626;23.382;2022-08-24T14:51:58;16.02;;;7.47;;
7767;SDS011;3928;42.626;23.382;2022-08-24T14:54:37;16.95;;;7.53;;
7767;SDS011;3928;42.626;23.382;2022-08-24T14:57:18;11.40;;;7.20;;
7767;SDS011;3928;42.626;23.382;2022-08-24T15:00:03;16.23;;;6.90;;
7767;SDS011;3928;42.626;23.382;2022-08-24T15:02:50;11.02;;;7.25;;
7767;SDS011;3928;42.626;23.382;2022-08-24T15:05:38;26.30;;;7.82;;
7767;SDS011;3928;42.626;23.382;2022-08-24T15:08:12;11.43;;;7.03;;
7767;SDS011;3928;42.626;23.382;2022-08-24T15:10:58;10.43;;;6.93;;
7767;SDS011;3928;42.626;23.382;2022-08-24T15:13:34;18.02;;;7.05;;
7767;SDS011;3928;42.626;23.382;2022-08-24T15:16:08;14.77;;;6.55;;
7767;SDS011;3928;42.626;23.382;2022-08-24T15:18:39;11.50;;;6.20;;
7767;SDS011;3928;42.626;23.382;2022-08-24T15:21:11;13.93;;;6.63;;
7767;SDS011;3928;42.626;23.382;2022-08-24T15:26:42;19.10;;;8.10;;
7767;SDS011;3928;42.626;23.382;2022-08-24T15:29:18;19.25;;;7.80;;
7767;SDS011;3928;42.626;23.382;2022-08-24T15:31:55;14.43;;;7.85;;
7767;SDS011;3928;42.626;23.382;2022-08-24T15:34:35;16.42;;;7.53;;
7767;SDS011;3928;42.626;23.382;2022-08-24T15:37:09;20.75;;;8.80;;
7767;SDS011;3928;42.626;23.382;2022-08-24T15:39:37;15.63;;;9.73;;
7767;SDS011;3928;42.626;23.382;2022-08-24T15:42:06;14.43;;;8.32;;
7767;SDS011;3928;42.626;23.382;2022-08-24T15:44:36;30.90;;;18.27;;
7767;SDS011;3928;42.626;23.382;2022-08-24T15:47:11;21.08;;;9.52;;
7767;SDS011;3928;42.626;23.382;2022-08-24T15:49:44;19.42;;;8.40;;
7767;SDS011;3928;42.626;23.382;2022-08-24T15:55:07;18.38;;;7.65;;
7767;SDS011;3928;42.626;23.382;2022-08-24T15:57:43;20.17;;;7.85;;
7767;SDS011;3928;42.626;23.382;2022-08-24T16:00:12;15.57;;;7.95;;
7767;SDS011;3928;42.626;23.382;2022-08-24T16:03:15;15.15;;;8.25;;
7767;SDS011;3928;42.626;23.382;2022-08-24T16:05:45;23.40;;;9.00;;
7767;SDS011;3928;42.626;23.382;2022-08-24T16:08:13;18.90;;;8.38;;
7767;SDS011;3928;42.626;23.382;2022-08-24T16:10:41;19.33;;;7.50;;
7767;SDS011;3928;42.626;23.382;2022-08-24T16:13:18;15.50;;;7.65;;
7767;SDS011;3928;42.626;23.382;2022-08-24T16:15:54;15.35;;;7.88;;
7767;SDS011;3928;42.626;23.382;2022-08-24T16:18:41;20.17;;;8.88;;
7767;SDS011;3928;42.626;23.382;2022-08-24T16:21:12;18.23;;;8.43;;